Chanute Martin Johnson Airport
KCNU : now visible

Airfield :











YOU CAN JOIN US ON...

 
LOGIN :

Register | Disclaimer

   EN    FR    IT 

 









Legend :    VFR   Marginal VFR   IFR   Intensive IFR   Very Intensive IFR
Visi :
Ceiling :
>= 8 km
>= 3000ft
5 to 8 km
1000 to 3000 ft
1500m to 5 km
500 to 1000 ft
800 to 1500m
200 to 500 ft
< 800m
< 200 ft
Symbols :   Thunderstorms  Fog  Heavy snow  Heavy precipitations  Wind > 20 kt







- Airport Elevation : 1002 ft


KCNU - Chanute Martin Johnson

CURRENT METAR :
  • 201639Z AUTO 16013G23KT 2 1/2SM -RA BR SCT009 BKN016 OVC030 23/21 A3004 RMK AO2 RAB28 P0000 T02330211

EXPIRED METARs :
  • 201552Z AUTO 15008KT 10SM OVC025 26/19 A3003 RMK AO2 SLP159 T02560194
  • 201452Z AUTO 16014G19KT 10SM OVC024 25/19 A3003 RMK AO2 SLP157 T02500194 50013
  • 201400Z AUTO 13007KT 10SM OVC029 24/20 A3003 RMK AO2 T02390200
  • 201352Z AUTO 13008KT 10SM OVC031 23/20 A3003 RMK AO2 SLP158 T02330200

TAF KCNU
Valid from the 20 at 12:00 until the 21 at 12:00 UTC


201146Z 2012/2112 13006KT P6SM FEW050 SCT200
FM201500 15010KT P6SM BKN030
FM201700 15010KT P6SM VCTS BKN010CB
FM210300 15010KT P6SM OVC010
FM210800 18012KT P6SM OVC008
No reported NOTAMs for that airfield.



MET'MAP, your aeronautical weather chart ! - Copyright ORBIFLY December 2007 - Disclaimer

ORBIFLY MET'MAP TEAM :

Programming & Development : Alexandra Zaïnal
Concept & Development : Baudouin d'Aumeries
Co-Development & Prog : Marc-Olivier Méhu
Technical & hardware support : Manuel Goepfert

Contact : metmap@orbifly.com




SOURCES & CREDITS :

   NOAA       Earth
Advisory